createdAt,value
2024-01-15T00:00:47.832Z,16.10
2024-01-15T00:03:17.743Z,11.90
2024-01-15T02:28:06.736Z,12.90
2024-01-15T02:30:37.347Z,12.20
2024-01-15T02:33:07.471Z,10.30
2024-01-15T02:35:40.644Z,8.60
2024-01-15T02:38:10.546Z,13.00
2024-01-15T02:40:40.578Z,12.30
2024-01-15T02:43:10.429Z,17.10
2024-01-15T02:45:40.268Z,16.50
2024-01-15T02:48:10.332Z,20.10
2024-01-15T02:50:40.229Z,15.70
2024-01-15T02:53:10.044Z,21.20
2024-01-15T02:55:39.985Z,22.60
2024-01-15T02:58:09.869Z,15.20
2024-01-15T03:00:40.083Z,13.40
2024-01-15T03:03:09.950Z,12.10
2024-01-15T03:05:39.897Z,17.60
2024-01-15T03:08:09.825Z,18.20
2024-01-15T03:10:39.898Z,15.60
2024-01-15T03:13:09.772Z,16.10
2024-01-15T03:15:39.656Z,16.90
2024-01-15T03:18:10.342Z,14.00
2024-01-15T03:20:40.230Z,14.70
2024-01-15T03:23:10.235Z,15.80
2024-01-15T03:25:40.125Z,16.00
2024-01-15T03:28:10.177Z,19.20
2024-01-15T03:30:40.217Z,31.70
2024-01-15T03:33:10.070Z,31.80
2024-01-15T03:35:39.834Z,35.10
2024-01-15T03:38:09.746Z,34.80
2024-01-15T03:40:39.862Z,37.40
2024-01-15T03:43:09.921Z,29.10
2024-01-15T03:45:39.660Z,24.40
2024-01-15T03:48:10.109Z,16.10
2024-01-15T03:50:40.080Z,20.90
2024-01-15T03:53:09.946Z,20.30
2024-01-15T03:55:39.887Z,26.20
2024-01-15T03:58:09.708Z,18.50
2024-01-15T04:00:40.229Z,18.70
2024-01-15T04:03:10.110Z,17.10
2024-01-15T04:05:40.622Z,15.80
2024-01-15T04:08:10.569Z,12.40
2024-01-15T04:10:40.364Z,12.80
2024-01-15T04:13:10.095Z,16.20
2024-01-15T04:15:39.853Z,22.20
2024-01-15T04:18:09.775Z,21.20
2024-01-15T04:20:39.721Z,20.20
2024-01-15T04:23:09.622Z,56.90
2024-01-15T04:25:43.615Z,137.30
2024-01-15T04:28:13.503Z,102.80
2024-01-15T04:30:43.365Z,127.60
2024-01-15T04:33:13.458Z,148.20
2024-01-15T04:35:43.484Z,142.90
2024-01-15T04:38:13.622Z,154.70
2024-01-15T04:40:43.815Z,121.00
2024-01-15T04:43:13.816Z,98.60
2024-01-15T04:45:43.893Z,107.20
2024-01-15T04:48:13.856Z,110.90
2024-01-15T04:50:43.794Z,89.00
2024-01-15T04:53:13.855Z,90.50
2024-01-15T04:55:43.717Z,99.60
2024-01-15T04:58:13.463Z,93.30
2024-01-15T05:00:43.488Z,72.50
2024-01-15T05:03:13.660Z,35.80
2024-01-15T05:05:43.620Z,26.80
2024-01-15T05:08:13.560Z,22.90
2024-01-15T05:10:43.759Z,20.40
2024-01-15T05:13:13.732Z,32.40
2024-01-15T05:15:44.085Z,22.90
2024-01-15T05:18:14.428Z,59.50
2024-01-15T05:20:44.506Z,56.20
2024-01-15T05:23:14.275Z,46.60
2024-01-15T05:25:44.176Z,40.30
2024-01-15T05:28:14.813Z,28.60
2024-01-15T06:19:09.909Z,12.40
